Time;durP1;ratioP1;P1;durP2;ratioP2;P2;SDS_P1;SDS_P2;PMS_P1;PMS_P2;Temp;Humidity;BMP_temperature;BMP_pressure;BME280_temperature;BME280_humidity;BME280_pressure;Samples;Min_cycle;Max_cycle;Signal;HPM_P1;HPM_P2
2020/12/12 00:01:07;;;;;;;89.80;34.93;;;1.30;99.90;;;;;;4650634;29;179050;-76
2020/12/12 00:03:33;;;;;;;87.80;34.07;;;1.30;99.90;;;;;;4650553;29;177999;-76
2020/12/12 00:06:00;;;;;;;152.10;38.93;;;1.50;99.90;;;;;;4649178;29;176530;-76
2020/12/12 00:08:26;;;;;;;91.97;35.37;;;1.30;99.90;;;;;;4651155;29;179909;-76
2020/12/12 00:10:53;;;;;;;86.67;33.07;;;1.40;99.90;;;;;;4663639;29;179822;-77
2020/12/12 00:13:19;;;;;;;105.53;34.83;;;1.40;99.90;;;;;;4662373;29;182030;-79
2020/12/12 00:15:46;;;;;;;90.23;36.30;;;1.40;99.90;;;;;;4656724;29;178048;-77
2020/12/12 00:18:12;;;;;;;91.77;35.43;;;1.40;99.90;;;;;;4650470;29;178975;-77
2020/12/12 00:20:39;;;;;;;101.40;36.83;;;1.40;99.90;;;;;;4650889;29;177891;-77
2020/12/12 00:23:05;;;;;;;96.03;36.00;;;1.60;99.90;;;;;;4649798;29;178109;-77
2020/12/12 00:25:31;;;;;;;92.77;37.27;;;1.40;99.90;;;;;;4650923;29;178745;-78
2020/12/12 00:27:57;;;;;;;87.20;36.10;;;1.40;99.90;;;;;;4650580;29;183058;-76
2020/12/12 00:30:24;;;;;;;97.67;36.80;;;1.60;99.90;;;;;;4650211;29;178080;-77
2020/12/12 00:32:50;;;;;;;87.00;35.57;;;1.40;99.90;;;;;;4650775;29;178578;-76
2020/12/12 00:35:16;;;;;;;95.80;36.57;;;1.40;99.90;;;;;;4651042;29;178081;-77
2020/12/12 00:37:43;;;;;;;92.77;36.73;;;1.40;99.90;;;;;;4648550;29;182977;-75
2020/12/12 00:40:10;;;;;;;93.60;37.43;;;1.40;99.90;;;;;;4650440;29;182111;-73
2020/12/12 00:42:36;;;;;;;95.90;37.80;;;1.50;99.90;;;;;;4650417;29;178434;-76
2020/12/12 00:45:03;;;;;;;92.40;37.27;;;1.50;99.90;;;;;;4650765;29;178057;-77
2020/12/12 00:47:29;;;;;;;90.50;38.43;;;1.40;99.90;;;;;;4648907;29;181299;-75
2020/12/12 00:49:55;;;;;;;90.10;38.13;;;1.50;99.90;;;;;;4649119;29;181274;-77
2020/12/12 00:52:22;;;;;;;90.60;38.37;;;1.50;99.90;;;;;;4650131;29;177966;-77
2020/12/12 00:54:49;;;;;;;86.20;37.23;;;1.50;99.90;;;;;;4649588;29;176557;-75
2020/12/12 00:57:17;;;;;;;95.87;38.27;;;1.50;99.90;;;;;;4649016;29;182181;-75
2020/12/12 00:59:44;;;;;;;95.83;37.90;;;1.60;99.90;;;;;;4650145;29;177867;-77
2020/12/12 01:02:11;;;;;;;98.57;38.80;;;1.50;99.90;;;;;;4648444;29;181273;-77
2020/12/12 01:04:38;;;;;;;91.47;37.93;;;1.50;99.90;;;;;;4648922;29;178012;-77
2020/12/12 01:07:04;;;;;;;85.53;37.10;;;1.60;99.90;;;;;;4650214;29;178786;-78
2020/12/12 01:09:30;;;;;;;91.87;39.47;;;1.50;99.90;;;;;;4650458;29;178435;-78
2020/12/12 01:11:57;;;;;;;92.50;36.77;;;1.60;99.90;;;;;;4650508;29;178937;-78
2020/12/12 01:14:23;;;;;;;87.27;37.60;;;1.60;99.90;;;;;;4650004;29;178151;-77
2020/12/12 01:16:49;;;;;;;94.47;37.87;;;1.60;99.90;;;;;;4650187;29;179307;-78
2020/12/12 01:19:16;;;;;;;95.77;38.87;;;1.60;99.90;;;;;;4650417;29;178283;-78
2020/12/12 01:21:45;;;;;;;87.47;38.33;;;1.40;99.90;;;;;;4649919;29;178316;-78
2020/12/12 01:24:16;;;;;;;87.00;36.80;;;1.60;99.90;;;;;;4650194;29;178016;-77
2020/12/12 01:26:46;;;;;;;118.47;40.73;;;1.60;99.90;;;;;;4646622;29;183379;-78
2020/12/12 01:29:15;;;;;;;83.50;36.73;;;1.70;99.90;;;;;;4649647;29;183604;-78
2020/12/12 01:31:42;;;;;;;77.30;35.60;;;1.60;99.90;;;;;;4647961;29;179038;-78
2020/12/12 01:34:09;;;;;;;97.97;38.37;;;1.80;99.90;;;;;;4649475;29;178126;-78
2020/12/12 01:36:41;;;;;;;90.40;35.93;;;1.60;99.90;;;;;;4649472;29;179277;-78
2020/12/12 01:39:10;;;;;;;81.17;35.67;;;1.70;99.90;;;;;;4650017;29;178016;-78
2020/12/12 01:41:43;;;;;;;94.30;38.03;;;1.70;99.90;;;;;;4649936;29;178049;-77
2020/12/12 01:44:16;;;;;;;102.87;38.40;;;1.70;99.90;;;;;;4650625;29;176515;-78
2020/12/12 01:46:49;;;;;;;82.37;36.50;;;1.60;99.90;;;;;;4649485;29;179801;-78
2020/12/12 01:49:15;;;;;;;77.57;35.67;;;1.70;99.90;;;;;;4649367;29;178427;-77
2020/12/12 01:51:45;;;;;;;81.20;37.43;;;1.70;99.90;;;;;;4646762;29;181347;-77
2020/12/12 01:54:18;;;;;;;93.40;37.90;;;1.40;99.90;;;;;;4649148;29;178400;-78
2020/12/12 01:56:54;;;;;;;88.07;36.43;;;1.70;99.90;;;;;;4649856;29;178606;-78
2020/12/12 01:59:40;;;;;;;95.47;38.90;;;2.20;99.90;;;;;;4648224;29;177941;-79
2020/12/12 02:02:10;;;;;;;94.27;37.50;;;2.00;99.90;;;;;;4649562;29;177949;-78
2020/12/12 02:04:53;;;;;;;82.40;36.40;;;1.70;99.90;;;;;;4648140;29;178092;-78
2020/12/12 02:07:34;;;;;;;81.70;34.90;;;2.00;99.90;;;;;;4631736;29;179881;-78
2020/12/12 02:10:01;;;;;;;74.67;34.97;;;1.70;99.90;;;;;;4632880;29;177898;-77
2020/12/12 02:12:28;;;;;;;86.63;37.07;;;1.70;99.90;;;;;;4631949;29;178022;-76
2020/12/12 02:15:06;;;;;;;80.70;35.13;;;1.70;99.90;;;;;;4630789;29;177976;-77
2020/12/12 02:17:36;;;;;;;89.10;37.07;;;1.70;99.90;;;;;;4630091;29;184962;-77
2020/12/12 02:20:04;;;;;;;76.13;35.63;;;1.70;99.90;;;;;;4631725;29;181099;-78
2020/12/12 02:22:30;;;;;;;83.17;34.83;;;1.70;99.90;;;;;;4631790;29;178140;-75
2020/12/12 02:24:56;;;;;;;79.20;36.43;;;1.70;99.90;;;;;;4634606;29;178071;-76
2020/12/12 02:27:22;;;;;;;74.67;35.30;;;1.70;99.90;;;;;;4649335;29;178864;-78
2020/12/12 02:29:50;;;;;;;72.17;35.07;;;1.70;99.90;;;;;;4648779;29;177910;-73
2020/12/12 02:32:17;;;;;;;72.67;34.53;;;1.60;99.90;;;;;;4648982;29;178511;-74
2020/12/12 02:34:44;;;;;;;85.03;37.50;;;1.60;99.90;;;;;;4650090;29;176600;-76
2020/12/12 02:37:11;;;;;;;84.80;35.83;;;1.60;99.90;;;;;;4647582;29;181675;-75
2020/12/12 02:39:37;;;;;;;73.77;35.60;;;1.60;99.90;;;;;;4647604;29;178530;-76
2020/12/12 02:42:04;;;;;;;75.17;34.33;;;1.60;99.90;;;;;;4647502;29;181153;-74
2020/12/12 02:44:30;;;;;;;68.10;33.73;;;1.70;99.90;;;;;;4648152;29;178111;-74
2020/12/12 02:46:56;;;;;;;65.63;33.90;;;2.00;99.90;;;;;;4657249;29;178043;-76
2020/12/12 02:49:23;;;;;;;70.67;35.30;;;1.70;99.90;;;;;;4652832;29;178119;-76
2020/12/12 02:51:51;;;;;;;73.10;35.60;;;1.60;99.90;;;;;;4652422;29;178001;-77
2020/12/12 02:54:18;;;;;;;75.13;35.63;;;1.50;99.90;;;;;;4650831;29;178423;-76
2020/12/12 02:56:47;;;;;;;90.37;36.07;;;1.50;99.90;;;;;;4650532;29;180730;-77
2020/12/12 02:59:13;;;;;;;70.30;34.47;;;1.60;99.90;;;;;;4652845;29;178390;-77
2020/12/12 03:01:41;;;;;;;68.73;32.60;;;1.70;99.90;;;;;;4650754;29;178848;-77
2020/12/12 03:04:10;;;;;;;71.43;33.97;;;1.60;99.90;;;;;;4651377;29;177998;-78
2020/12/12 03:06:43;;;;;;;69.23;35.00;;;1.50;99.90;;;;;;4648619;29;182729;-78
2020/12/12 03:09:11;;;;;;;63.47;33.93;;;1.60;99.90;;;;;;4636828;29;181971;-77
2020/12/12 03:11:38;;;;;;;68.73;32.83;;;1.60;99.90;;;;;;4651882;29;178026;-76
2020/12/12 03:14:04;;;;;;;78.40;33.97;;;1.50;99.90;;;;;;4651590;29;178460;-77
2020/12/12 03:16:31;;;;;;;98.83;36.20;;;1.50;99.90;;;;;;4650475;29;178747;-76
2020/12/12 03:18:57;;;;;;;72.63;33.57;;;1.50;99.90;;;;;;4651706;29;178396;-76
2020/12/12 03:21:23;;;;;;;96.20;35.47;;;1.50;99.90;;;;;;4651699;29;178614;-76
2020/12/12 03:23:50;;;;;;;81.07;34.90;;;1.50;99.90;;;;;;4652403;29;177365;-76
2020/12/12 03:26:16;;;;;;;67.80;33.90;;;1.50;99.90;;;;;;4664754;29;178846;-77
2020/12/12 03:28:42;;;;;;;64.23;33.10;;;1.50;99.90;;;;;;4650160;29;179521;-78
2020/12/12 03:31:09;;;;;;;62.40;32.27;;;1.50;99.90;;;;;;4649924;29;181801;-76
2020/12/12 03:33:35;;;;;;;67.73;34.67;;;1.40;99.90;;;;;;4651679;29;178957;-77
2020/12/12 03:36:05;;;;;;;67.10;32.47;;;1.40;99.90;;;;;;4649833;29;179816;-77
2020/12/12 03:38:31;;;;;;;72.37;34.53;;;1.40;99.90;;;;;;4651259;29;178401;-76
2020/12/12 03:40:58;;;;;;;61.67;34.17;;;1.10;99.90;;;;;;4651262;29;178006;-77
2020/12/12 03:43:28;;;;;;;65.43;32.50;;;1.40;99.90;;;;;;4651399;29;178817;-76
2020/12/12 03:45:57;;;;;;;63.17;32.67;;;1.40;99.90;;;;;;4651261;29;179707;-76
2020/12/12 03:48:28;;;;;;;67.90;35.37;;;1.40;99.90;;;;;;4649967;29;180815;-76
2020/12/12 03:50:59;;;;;;;60.00;32.67;;;1.40;99.90;;;;;;4651714;29;177924;-77
2020/12/12 03:53:26;;;;;;;76.50;35.20;;;1.50;99.90;;;;;;4650468;29;178176;-75
2020/12/12 03:55:52;;;;;;;60.97;34.23;;;1.60;99.90;;;;;;4649148;29;182512;-77
2020/12/12 03:58:19;;;;;;;55.20;31.17;;;1.40;99.90;;;;;;4649428;29;184523;-76
2020/12/12 04:00:47;;;;;;;66.20;33.63;;;1.40;99.90;;;;;;4651167;29;177994;-76
2020/12/12 04:03:14;;;;;;;61.33;32.77;;;1.60;99.90;;;;;;4651155;29;177932;-76
2020/12/12 04:05:44;;;;;;;63.17;32.77;;;1.40;99.90;;;;;;4651100;29;178800;-76
2020/12/12 04:08:11;;;;;;;62.37;34.03;;;1.40;99.90;;;;;;4650804;29;180523;-77
2020/12/12 04:10:49;;;;;;;60.87;32.57;;;1.40;99.90;;;;;;4654940;29;178326;-77
2020/12/12 04:13:16;;;;;;;61.70;34.97;;;1.30;99.90;;;;;;4668725;29;177179;-75
2020/12/12 04:15:45;;;;;;;57.60;33.47;;;1.90;99.90;;;;;;4681938;29;182847;-75
2020/12/12 04:18:12;;;;;;;75.53;33.47;;;1.60;99.90;;;;;;4673987;29;181027;-76
2020/12/12 04:20:39;;;;;;;57.87;32.53;;;1.40;99.90;;;;;;4631856;29;181307;-72
2020/12/12 04:23:05;;;;;;;59.57;33.10;;;1.40;99.90;;;;;;4650674;29;178114;-74
2020/12/12 04:25:31;;;;;;;56.30;34.27;;;1.90;99.90;;;;;;4650421;29;178700;-76
2020/12/12 04:27:58;;;;;;;63.67;35.63;;;1.40;99.90;;;;;;4650893;29;177963;-76
2020/12/12 04:30:27;;;;;;;61.20;33.67;;;1.20;99.90;;;;;;4650461;29;178711;-75
2020/12/12 04:32:54;;;;;;;59.80;33.80;;;1.30;99.90;;;;;;4650958;29;178039;-76
2020/12/12 04:35:20;;;;;;;60.47;34.23;;;1.30;99.90;;;;;;4649573;29;181312;-77
2020/12/12 04:37:46;;;;;;;60.17;35.00;;;1.30;99.90;;;;;;4651180;29;179066;-77
2020/12/12 04:40:14;;;;;;;59.13;33.47;;;1.30;99.90;;;;;;4650346;29;178071;-76
2020/12/12 04:42:45;;;;;;;90.07;37.07;;;1.30;99.90;;;;;;4649850;29;178020;-77
2020/12/12 04:45:12;;;;;;;58.57;33.17;;;1.40;99.90;;;;;;4649061;29;181965;-75
2020/12/12 04:47:43;;;;;;;57.97;35.00;;;1.30;99.90;;;;;;4650183;29;183423;-76
2020/12/12 04:50:10;;;;;;;62.97;35.30;;;1.30;99.90;;;;;;4650634;29;178027;-75
2020/12/12 04:52:41;;;;;;;60.90;34.37;;;1.60;99.90;;;;;;4650353;29;178177;-76
2020/12/12 04:55:10;;;;;;;59.03;35.37;;;1.40;99.90;;;;;;4650652;29;179022;-77
2020/12/12 04:57:38;;;;;;;62.43;35.40;;;1.30;99.90;;;;;;4650362;29;177924;-73
2020/12/12 05:00:09;;;;;;;63.27;35.30;;;1.40;99.90;;;;;;4650758;29;178455;-76
2020/12/12 05:02:38;;;;;;;66.03;36.97;;;1.30;99.90;;;;;;4649693;29;177042;-76
2020/12/12 05:05:06;;;;;;;66.80;37.00;;;1.30;99.90;;;;;;4650337;29;179072;-75
2020/12/12 05:07:32;;;;;;;67.63;36.70;;;1.40;99.90;;;;;;4650261;29;178911;-75
2020/12/12 05:10:00;;;;;;;63.97;37.10;;;1.30;99.90;;;;;;4648428;29;181672;-77
2020/12/12 05:12:31;;;;;;;70.17;37.07;;;1.30;99.90;;;;;;4649066;29;178116;-74
2020/12/12 05:14:57;;;;;;;63.77;36.87;;;1.30;99.90;;;;;;4649584;29;180014;-74
2020/12/12 05:17:24;;;;;;;63.67;37.93;;;1.30;99.90;;;;;;4649705;29;178300;-77
2020/12/12 05:19:50;;;;;;;61.77;36.93;;;1.30;99.90;;;;;;4654846;29;177955;-76
2020/12/12 05:22:17;;;;;;;67.30;38.50;;;1.30;99.90;;;;;;4667592;29;177863;-77
2020/12/12 05:24:44;;;;;;;68.10;38.33;;;1.30;99.90;;;;;;4667440;29;180797;-76
2020/12/12 05:27:11;;;;;;;66.10;38.93;;;1.30;99.90;;;;;;4668318;29;178364;-76
2020/12/12 05:29:37;;;;;;;69.13;39.40;;;1.30;99.90;;;;;;4667955;29;177887;-76
2020/12/12 05:32:04;;;;;;;65.33;38.57;;;1.30;99.90;;;;;;4667462;29;177996;-77
2020/12/12 05:34:31;;;;;;;75.07;41.50;;;1.30;99.90;;;;;;4653479;29;185598;-75
2020/12/12 05:36:57;;;;;;;69.53;40.20;;;1.30;99.90;;;;;;4648132;29;183864;-77
2020/12/12 05:39:24;;;;;;;75.93;42.27;;;1.30;99.90;;;;;;4648754;29;177948;-76
2020/12/12 05:41:50;;;;;;;66.37;39.37;;;1.30;99.90;;;;;;4649624;29;178664;-77
2020/12/12 05:44:18;;;;;;;70.47;40.13;;;1.30;99.90;;;;;;4649520;29;179352;-77
2020/12/12 05:46:47;;;;;;;83.07;42.37;;;1.30;99.90;;;;;;4649493;29;178502;-78
2020/12/12 05:49:16;;;;;;;71.00;40.87;;;1.30;99.90;;;;;;4649699;29;177944;-76
2020/12/12 05:51:42;;;;;;;70.57;41.07;;;1.30;99.90;;;;;;4650376;29;176371;-76
2020/12/12 05:54:09;;;;;;;78.60;41.77;;;1.30;99.90;;;;;;4662759;29;180072;-77
2020/12/12 05:56:35;;;;;;;72.73;42.47;;;1.30;99.90;;;;;;4649377;29;178713;-74
2020/12/12 05:59:04;;;;;;;76.07;41.03;;;1.30;99.90;;;;;;4648510;29;181246;-77
2020/12/12 06:01:34;;;;;;;74.10;40.50;;;1.30;99.90;;;;;;4649587;29;178685;-76
2020/12/12 06:04:11;;;;;;;76.07;42.63;;;1.30;99.90;;;;;;4649509;29;182610;-80
2020/12/12 06:06:45;;;;;;;72.83;40.73;;;1.30;99.90;;;;;;4649390;29;177889;-77
2020/12/12 06:09:14;;;;;;;76.10;42.53;;;1.50;99.90;;;;;;4648633;29;178003;-76
2020/12/12 06:11:45;;;;;;;72.50;43.00;;;1.30;99.90;;;;;;4649517;29;177952;-78
2020/12/12 06:14:12;;;;;;;80.10;42.80;;;1.40;99.90;;;;;;4648687;29;180612;-77
2020/12/12 06:16:38;;;;;;;96.47;42.77;;;1.30;99.90;;;;;;4648593;29;178735;-78
2020/12/12 06:19:10;;;;;;;73.27;39.97;;;1.30;99.90;;;;;;4649552;29;178857;-75
2020/12/12 06:21:41;;;;;;;77.83;43.23;;;1.50;99.90;;;;;;4648992;29;179347;-75
2020/12/12 06:24:13;;;;;;;79.00;40.80;;;1.10;99.90;;;;;;4647703;29;183098;-75
2020/12/12 06:27:08;;;;;;;85.23;42.83;;;1.30;99.90;;;;;;4649052;29;181621;-76
2020/12/12 06:29:42;;;;;;;75.37;41.80;;;1.30;99.90;;;;;;4649565;29;178300;-76
2020/12/12 06:32:16;;;;;;;82.43;43.37;;;1.30;99.90;;;;;;4648611;29;178112;-77
2020/12/12 06:34:47;;;;;;;77.40;41.63;;;1.30;99.90;;;;;;4649374;29;178189;-76
2020/12/12 06:37:39;;;;;;;92.00;42.93;;;1.30;99.90;;;;;;4647688;29;180332;-75
2020/12/12 06:40:08;;;;;;;86.07;41.53;;;1.30;99.90;;;;;;4644858;29;178635;-78
2020/12/12 06:42:37;;;;;;;76.60;40.13;;;1.30;99.90;;;;;;4646282;29;177751;-77
2020/12/12 06:45:23;;;;;;;74.33;39.90;;;1.30;99.90;;;;;;4645105;29;180590;-77
2020/12/12 06:47:53;;;;;;;73.67;38.73;;;1.30;99.90;;;;;;4646333;29;179220;-78
2020/12/12 06:50:21;;;;;;;75.10;40.07;;;1.30;99.90;;;;;;4644014;29;182033;-77
2020/12/12 06:52:49;;;;;;;133.37;44.83;;;1.20;99.90;;;;;;4644319;29;178029;-77
2020/12/12 06:55:17;;;;;;;79.50;40.13;;;1.30;99.90;;;;;;4645803;29;179332;-77
2020/12/12 06:57:45;;;;;;;73.57;38.87;;;1.30;99.90;;;;;;4646268;29;178767;-77
2020/12/12 07:00:32;;;;;;;127.07;41.67;;;1.30;99.90;;;;;;4646620;29;178319;-77
2020/12/12 07:02:59;;;;;;;76.53;38.57;;;1.30;99.90;;;;;;4645940;29;177955;-77
2020/12/12 07:05:30;;;;;;;143.03;45.20;;;1.30;99.90;;;;;;4646305;29;179904;-76
2020/12/12 07:08:05;;;;;;;85.57;40.23;;;1.40;99.90;;;;;;4645332;29;179867;-75
2020/12/12 07:10:32;;;;;;;76.83;38.50;;;1.30;99.90;;;;;;4647058;29;178648;-75
2020/12/12 07:12:59;;;;;;;80.13;37.70;;;1.10;99.90;;;;;;4643447;29;177909;-75
2020/12/12 07:15:29;;;;;;;175.87;46.40;;;1.40;99.90;;;;;;4643688;29;183289;-75
2020/12/12 07:18:02;;;;;;;88.90;38.10;;;1.30;99.90;;;;;;4646294;29;181528;-76
2020/12/12 07:20:36;;;;;;;155.67;44.57;;;1.30;99.90;;;;;;4642276;29;178525;-75
2020/12/12 07:23:06;;;;;;;169.37;44.73;;;1.30;99.90;;;;;;4643741;29;180054;-75
2020/12/12 07:25:36;;;;;;;75.23;36.40;;;1.30;99.90;;;;;;4646045;29;179384;-75
2020/12/12 07:28:04;;;;;;;86.73;39.10;;;0.90;99.90;;;;;;4644021;29;179535;-75
2020/12/12 07:30:33;;;;;;;96.37;38.90;;;1.30;99.90;;;;;;4645482;29;178063;-74
2020/12/12 07:33:25;;;;;;;181.07;45.13;;;1.30;99.90;;;;;;4647465;29;176432;-75
2020/12/12 07:35:54;;;;;;;129.33;41.43;;;1.80;99.90;;;;;;4648754;29;178601;-75
2020/12/12 07:38:21;;;;;;;78.13;37.13;;;1.30;99.90;;;;;;4647758;29;178178;-73
2020/12/12 07:40:48;;;;;;;75.23;35.77;;;1.30;99.90;;;;;;4647750;29;181664;-72
2020/12/12 07:43:14;;;;;;;70.90;36.87;;;1.30;99.90;;;;;;4648047;29;178577;-76
2020/12/12 07:48:19;;;;;;;76.20;37.07;;;1.50;99.90;;;;;;4661975;29;179969;-75
2020/12/12 07:50:45;;;;;;;79.43;37.50;;;1.40;99.90;;;;;;4649106;29;177861;-76
2020/12/12 07:53:13;;;;;;;75.43;36.40;;;1.40;99.90;;;;;;4645967;29;180666;-75
2020/12/12 07:55:43;;;;;;;77.70;36.70;;;1.40;99.90;;;;;;4648811;29;180980;-75
2020/12/12 07:58:27;;;;;;;72.13;35.57;;;1.40;99.90;;;;;;4649366;29;177852;-76
2020/12/12 08:01:04;;;;;;;74.73;35.50;;;1.40;99.90;;;;;;4648629;29;178505;-76
2020/12/12 08:03:44;;;;;;;68.90;35.00;;;1.40;99.90;;;;;;4648172;29;179546;-75
2020/12/12 08:06:12;;;;;;;65.40;34.97;;;1.40;99.90;;;;;;4645535;29;184813;-74
2020/12/12 08:08:39;;;;;;;71.77;35.30;;;1.40;99.90;;;;;;4647810;29;185132;-75
2020/12/12 08:11:10;;;;;;;74.87;36.13;;;1.50;99.90;;;;;;4648477;29;178777;-76
2020/12/12 08:13:37;;;;;;;71.90;36.03;;;1.50;99.90;;;;;;4647663;29;178326;-76
2020/12/12 08:16:10;;;;;;;75.83;35.87;;;1.40;99.90;;;;;;4646579;29;179252;-75
2020/12/12 08:18:37;;;;;;;69.47;34.57;;;1.60;99.90;;;;;;4644294;29;178513;-77
2020/12/12 08:21:10;;;;;;;71.03;33.23;;;1.50;99.90;;;;;;4643053;29;179905;-77
2020/12/12 08:23:37;;;;;;;70.17;33.90;;;1.50;99.90;;;;;;4653189;29;177155;-76
2020/12/12 08:26:08;;;;;;;69.87;34.50;;;1.60;99.90;;;;;;4651435;29;179932;-74
2020/12/12 08:28:35;;;;;;;62.80;33.43;;;1.50;99.90;;;;;;4647465;29;178059;-77
2020/12/12 08:31:12;;;;;;;66.13;33.87;;;1.60;99.90;;;;;;4648870;29;182524;-77
2020/12/12 08:33:43;;;;;;;69.43;35.90;;;1.60;99.90;;;;;;4650903;29;178684;-80
2020/12/12 08:36:11;;;;;;;70.03;33.57;;;1.90;99.90;;;;;;4648211;29;180998;-76
2020/12/12 08:38:38;;;;;;;72.00;34.07;;;1.60;99.90;;;;;;4648244;29;178391;-76
2020/12/12 08:41:11;;;;;;;71.00;34.83;;;1.70;99.90;;;;;;4650943;29;177867;-77
2020/12/12 08:43:40;;;;;;;65.10;34.23;;;1.90;99.90;;;;;;4650784;29;177937;-75
2020/12/12 08:46:07;;;;;;;68.27;34.63;;;1.70;99.90;;;;;;4650322;29;178825;-77
2020/12/12 08:48:37;;;;;;;68.93;34.40;;;1.70;99.90;;;;;;4649503;29;182148;-76
2020/12/12 08:51:05;;;;;;;68.63;33.87;;;1.70;99.90;;;;;;4651058;29;178994;-76
2020/12/12 08:53:42;;;;;;;68.97;31.93;;;1.70;99.90;;;;;;4648380;29;178210;-74
2020/12/12 08:56:22;;;;;;;66.57;34.97;;;1.80;99.90;;;;;;4648619;29;182432;-73
2020/12/12 08:59:18;;;;;;;76.80;35.30;;;1.80;99.90;;;;;;4649673;29;182032;-71
2020/12/12 09:01:45;;;;;;;66.43;32.70;;;1.80;99.90;;;;;;4633431;29;179891;-72
2020/12/12 09:04:13;;;;;;;67.43;35.33;;;1.80;99.90;;;;;;4630344;29;179118;-74
2020/12/12 09:06:47;;;;;;;66.53;33.03;;;1.90;99.90;;;;;;4630228;29;180053;-73
2020/12/12 09:09:24;;;;;;;66.27;32.00;;;1.80;99.90;;;;;;4629816;29;179074;-75
2020/12/12 09:12:08;;;;;;;77.23;32.97;;;1.90;99.90;;;;;;4628985;29;177971;-73
2020/12/12 09:14:42;;;;;;;74.20;32.50;;;1.90;99.90;;;;;;4629707;29;177230;-74
2020/12/12 09:17:13;;;;;;;66.03;32.17;;;1.90;99.90;;;;;;4629973;29;178819;-75
2020/12/12 09:19:43;;;;;;;74.20;33.43;;;1.90;99.90;;;;;;4642779;29;180588;-74
2020/12/12 09:22:16;;;;;;;69.40;33.07;;;1.90;99.90;;;;;;4645770;29;182330;-75
2020/12/12 09:24:45;;;;;;;68.10;33.90;;;2.00;99.90;;;;;;4646293;29;178004;-74
2020/12/12 09:27:12;;;;;;;68.13;32.20;;;1.90;99.90;;;;;;4647177;29;179485;-76
2020/12/12 09:29:50;;;;;;;64.37;32.20;;;1.70;99.90;;;;;;4645754;29;178470;-74
2020/12/12 09:32:17;;;;;;;61.63;31.70;;;1.90;99.90;;;;;;4644257;29;178589;-75
2020/12/12 09:34:46;;;;;;;63.40;31.37;;;2.30;99.90;;;;;;4645550;29;179106;-74
2020/12/12 09:37:17;;;;;;;59.20;31.37;;;1.80;99.90;;;;;;4647380;29;179809;-75
2020/12/12 09:40:17;;;;;;;63.43;31.40;;;2.00;99.90;;;;;;4646030;29;207375;-75
2020/12/12 09:42:44;;;;;;;61.73;30.90;;;1.80;99.90;;;;;;4645478;29;178227;-75
2020/12/12 09:45:10;;;;;;;61.30;30.00;;;2.10;99.90;;;;;;4647859;29;178167;-70
2020/12/12 09:47:36;;;;;;;59.23;29.27;;;2.10;99.90;;;;;;4643661;29;182509;-75
2020/12/12 09:50:05;;;;;;;58.03;30.27;;;2.10;99.90;;;;;;4645333;29;184222;-75
2020/12/12 09:52:44;;;;;;;64.13;29.70;;;2.10;99.90;;;;;;4643852;29;178460;-74
2020/12/12 09:55:12;;;;;;;57.97;29.33;;;2.30;99.90;;;;;;4646445;29;178044;-75
2020/12/12 09:57:47;;;;;;;61.50;30.00;;;2.10;99.90;;;;;;4647020;29;178760;-76
2020/12/12 10:00:21;;;;;;;58.13;29.00;;;2.10;99.90;;;;;;4647314;29;178696;-75
2020/12/12 10:02:50;;;;;;;55.93;28.63;;;2.20;99.90;;;;;;4645357;29;179584;-76
2020/12/12 10:05:20;;;;;;;59.23;29.83;;;2.20;99.90;;;;;;4647647;29;177697;-73
2020/12/12 10:07:46;;;;;;;58.27;29.40;;;1.90;99.90;;;;;;4647108;29;178930;-75
2020/12/12 10:10:12;;;;;;;60.63;32.00;;;2.20;99.90;;;;;;4646159;29;178678;-75
2020/12/12 10:12:38;;;;;;;57.30;29.40;;;2.20;99.90;;;;;;4643039;29;182132;-76
2020/12/12 10:15:07;;;;;;;56.73;28.60;;;2.20;99.90;;;;;;4646582;29;178121;-75
2020/12/12 10:17:34;;;;;;;54.00;28.90;;;2.20;99.90;;;;;;4642495;29;181513;-76
2020/12/12 10:20:00;;;;;;;54.57;28.57;;;2.30;99.90;;;;;;4643547;29;177951;-75
2020/12/12 10:22:27;;;;;;;52.37;27.73;;;2.30;99.90;;;;;;4643614;29;179142;-75
2020/12/12 10:24:53;;;;;;;53.07;27.93;;;2.30;99.90;;;;;;4645463;29;180769;-73
2020/12/12 10:27:19;;;;;;;50.53;27.07;;;2.50;99.90;;;;;;4644169;29;179988;-75
2020/12/12 10:29:45;;;;;;;56.57;27.87;;;2.30;99.90;;;;;;4645713;29;177132;-73
2020/12/12 10:32:14;;;;;;;57.77;28.93;;;2.30;99.90;;;;;;4644028;29;179143;-75
2020/12/12 10:34:40;;;;;;;55.20;26.57;;;2.40;99.90;;;;;;4641499;29;178327;-76
2020/12/12 10:37:08;;;;;;;60.27;28.73;;;2.30;99.90;;;;;;4641831;29;183801;-72
2020/12/12 10:40:06;;;;;;;53.57;27.57;;;2.50;99.90;;;;;;4645213;29;182451;-74
2020/12/12 10:42:36;;;;;;;56.80;27.53;;;2.40;99.90;;;;;;4643608;29;178054;-76
2020/12/12 10:45:04;;;;;;;50.57;26.87;;;2.40;99.90;;;;;;4644135;29;180558;-76
2020/12/12 10:47:33;;;;;;;53.13;27.30;;;2.50;99.90;;;;;;4645246;29;179225;-76
2020/12/12 10:50:00;;;;;;;59.97;27.00;;;2.50;99.90;;;;;;4643075;29;178477;-78
2020/12/12 10:52:40;;;;;;;57.73;27.27;;;2.40;99.90;;;;;;4644251;29;178441;-75
2020/12/12 10:55:06;;;;;;;54.07;28.30;;;2.50;99.90;;;;;;4645724;29;177185;-76
2020/12/12 10:57:33;;;;;;;53.13;27.97;;;2.50;99.90;;;;;;4645515;29;179072;-77
2020/12/12 11:00:02;;;;;;;48.50;25.73;;;2.50;99.90;;;;;;4643856;29;180132;-76
2020/12/12 11:02:33;;;;;;;52.17;26.20;;;2.50;99.90;;;;;;4642121;29;181609;-76
2020/12/12 11:05:11;;;;;;;53.13;24.93;;;2.50;99.90;;;;;;4644642;29;178544;-74
2020/12/12 11:07:48;;;;;;;46.13;24.70;;;3.00;99.90;;;;;;4645789;29;180224;-75
2020/12/12 11:10:15;;;;;;;52.70;25.93;;;2.50;99.90;;;;;;4647636;29;179118;-77
2020/12/12 11:12:45;;;;;;;51.53;26.47;;;3.10;99.90;;;;;;4646758;29;180150;-78
2020/12/12 11:15:15;;;;;;;51.50;27.13;;;2.60;99.90;;;;;;4648729;29;178178;-77
2020/12/12 11:17:47;;;;;;;49.90;26.27;;;2.60;99.90;;;;;;4647807;29;180528;-78
2020/12/12 11:20:15;;;;;;;53.97;26.80;;;2.90;99.90;;;;;;4649897;29;178436;-74
2020/12/12 11:22:48;;;;;;;49.97;26.57;;;2.50;99.90;;;;;;4647708;29;178574;-77
2020/12/12 11:25:14;;;;;;;47.17;25.60;;;3.00;99.90;;;;;;4648334;29;179952;-75
2020/12/12 11:27:41;;;;;;;50.80;25.87;;;2.70;99.90;;;;;;4645438;29;185702;-76
2020/12/12 11:30:12;;;;;;;48.10;25.80;;;2.70;99.90;;;;;;4648543;29;180951;-74
2020/12/12 11:32:39;;;;;;;48.30;24.83;;;2.70;99.90;;;;;;4648617;29;179214;-78
2020/12/12 11:35:15;;;;;;;53.10;25.83;;;2.70;99.90;;;;;;4647737;29;178126;-78
2020/12/12 11:48:17;;;;;;;47.20;25.40;;;2.80;99.90;;;;;;4647953;29;181538;-78
2020/12/12 11:50:43;;;;;;;51.83;25.03;;;2.80;99.90;;;;;;4647432;29;180159;-78
2020/12/12 11:53:13;;;;;;;47.57;25.50;;;2.60;99.90;;;;;;4644419;29;184220;-78
2020/12/12 11:55:55;;;;;;;47.87;24.73;;;2.80;99.90;;;;;;4661812;29;178217;-77
2020/12/12 11:58:46;;;;;;;46.47;24.27;;;2.90;99.90;;;;;;4646895;29;179244;-81
2020/12/12 12:01:32;;;;;;;47.80;24.13;;;2.90;99.90;;;;;;4645482;29;178367;-79
2020/12/12 12:04:01;;;;;;;45.17;23.70;;;2.70;99.90;;;;;;4646926;29;179248;-78
2020/12/12 12:06:37;;;;;;;50.50;24.97;;;3.20;99.90;;;;;;4647092;29;179069;-79
2020/12/12 12:09:40;;;;;;;47.17;23.63;;;3.30;99.90;;;;;;4646715;29;181245;-78
2020/12/12 12:12:38;;;;;;;44.17;23.07;;;3.20;99.90;;;;;;4642505;29;179088;-79
2020/12/12 12:15:14;;;;;;;45.20;24.13;;;3.00;99.90;;;;;;4646498;29;177994;-74
2020/12/12 12:17:47;;;;;;;45.07;23.90;;;3.00;99.90;;;;;;4632693;29;179372;-75
2020/12/12 12:20:21;;;;;;;45.73;24.43;;;3.00;99.90;;;;;;4646090;29;181668;-77
2020/12/12 12:23:15;;;;;;;44.87;25.33;;;3.00;99.90;;;;;;4648057;29;181689;-79
2020/12/12 12:25:43;;;;;;;46.10;24.27;;;3.10;99.90;;;;;;4648055;29;178111;-79
2020/12/12 12:28:18;;;;;;;45.20;24.37;;;3.10;99.90;;;;;;4648566;29;178422;-75
2020/12/12 12:30:47;;;;;;;48.47;24.50;;;3.20;99.90;;;;;;4647854;29;179862;-75
2020/12/12 12:33:34;;;;;;;49.50;26.27;;;3.10;99.90;;;;;;4647435;29;178978;-79
2020/12/12 12:36:14;;;;;;;50.23;24.73;;;3.10;99.90;;;;;;4647683;29;178205;-78
2020/12/12 12:38:44;;;;;;;49.03;25.77;;;3.20;99.90;;;;;;4649019;29;176593;-78
2020/12/12 12:41:14;;;;;;;50.97;25.43;;;3.00;99.90;;;;;;4645781;29;179045;-73
2020/12/12 12:43:40;;;;;;;45.17;25.00;;;3.20;99.90;;;;;;4645761;29;179055;-79
2020/12/12 12:46:18;;;;;;;50.53;26.13;;;3.20;99.90;;;;;;4644858;29;181409;-78
2020/12/12 12:48:46;;;;;;;46.70;25.50;;;;;;;;;;4643854;29;178366;-74
2020/12/12 12:51:14;;;;;;;45.47;24.73;;;3.30;99.90;;;;;;4645418;29;181755;-79
2020/12/12 12:53:41;;;;;;;48.70;25.20;;;3.30;99.90;;;;;;4645338;29;178851;-78